sensor_id;sensor_type;location;lat;lon;timestamp;P1;durP1;ratioP1;P2;durP2;ratioP2
22382;SDS011;11359;45.802;13.530;2023-02-26T00:00:18;0.30;;;0.30;;
22382;SDS011;11359;45.802;13.530;2023-02-26T00:02:45;0.40;;;0.40;;
22382;SDS011;11359;45.802;13.530;2023-02-26T00:05:13;0.30;;;0.30;;
22382;SDS011;11359;45.802;13.530;2023-02-26T00:07:40;0.40;;;0.30;;
22382;SDS011;11359;45.802;13.530;2023-02-26T00:10:07;0.40;;;0.40;;
22382;SDS011;11359;45.802;13.530;2023-02-26T00:12:35;0.30;;;0.30;;
22382;SDS011;11359;45.802;13.530;2023-02-26T00:15:01;0.30;;;0.30;;
22382;SDS011;11359;45.802;13.530;2023-02-26T00:19:58;0.20;;;0.20;;
22382;SDS011;11359;45.802;13.530;2023-02-26T00:22:24;0.20;;;0.20;;
22382;SDS011;11359;45.802;13.530;2023-02-26T00:24:50;0.30;;;0.30;;
22382;SDS011;11359;45.802;13.530;2023-02-26T00:27:16;0.20;;;0.20;;
22382;SDS011;11359;45.802;13.530;2023-02-26T00:29:42;0.63;;;0.30;;
22382;SDS011;11359;45.802;13.530;2023-02-26T00:32:08;0.20;;;0.20;;
22382;SDS011;11359;45.802;13.530;2023-02-26T00:34:35;0.28;;;0.20;;
22382;SDS011;11359;45.802;13.530;2023-02-26T00:40:07;0.22;;;0.22;;
22382;SDS011;11359;45.802;13.530;2023-02-26T00:42:37;0.20;;;0.20;;
22382;SDS011;11359;45.802;13.530;2023-02-26T00:45:03;0.20;;;0.20;;
22382;SDS011;11359;45.802;13.530;2023-02-26T00:47:32;0.30;;;0.30;;
22382;SDS011;11359;45.802;13.530;2023-02-26T00:55:29;0.30;;;0.30;;
22382;SDS011;11359;45.802;13.530;2023-02-26T00:57:55;0.30;;;0.30;;
22382;SDS011;11359;45.802;13.530;2023-02-26T01:00:22;0.20;;;0.20;;
22382;SDS011;11359;45.802;13.530;2023-02-26T01:02:48;0.30;;;0.30;;
22382;SDS011;11359;45.802;13.530;2023-02-26T01:05:15;0.30;;;0.30;;
22382;SDS011;11359;45.802;13.530;2023-02-26T01:10:25;0.20;;;0.20;;
22382;SDS011;11359;45.802;13.530;2023-02-26T01:12:52;0.40;;;0.30;;
22382;SDS011;11359;45.802;13.530;2023-02-26T01:15:20;0.30;;;0.25;;
22382;SDS011;11359;45.802;13.530;2023-02-26T01:18:25;0.20;;;0.20;;
22382;SDS011;11359;45.802;13.530;2023-02-26T01:20:51;0.57;;;0.47;;
22382;SDS011;11359;45.802;13.530;2023-02-26T01:23:25;0.55;;;0.25;;
22382;SDS011;11359;45.802;13.530;2023-02-26T01:25:58;1.08;;;0.30;;
22382;SDS011;11359;45.802;13.530;2023-02-26T01:28:28;0.20;;;0.20;;
22382;SDS011;11359;45.802;13.530;2023-02-26T01:30:56;0.32;;;0.20;;
22382;SDS011;11359;45.802;13.530;2023-02-26T01:33:29;3.20;;;0.20;;
22382;SDS011;11359;45.802;13.530;2023-02-26T01:36:01;0.40;;;0.30;;
22382;SDS011;11359;45.802;13.530;2023-02-26T01:38:43;0.43;;;0.20;;
22382;SDS011;11359;45.802;13.530;2023-02-26T01:50:20;0.20;;;0.20;;
22382;SDS011;11359;45.802;13.530;2023-02-26T01:53:13;0.73;;;0.20;;
22382;SDS011;11359;45.802;13.530;2023-02-26T01:55:46;0.30;;;0.30;;
22382;SDS011;11359;45.802;13.530;2023-02-26T01:58:19;0.88;;;0.28;;
22382;SDS011;11359;45.802;13.530;2023-02-26T02:00:46;0.45;;;0.30;;
22382;SDS011;11359;45.802;13.530;2023-02-26T02:03:12;1.10;;;0.30;;
22382;SDS011;11359;45.802;13.530;2023-02-26T02:05:40;0.20;;;0.20;;
22382;SDS011;11359;45.802;13.530;2023-02-26T02:08:12;0.30;;;0.30;;
22382;SDS011;11359;45.802;13.530;2023-02-26T02:10:43;0.22;;;0.20;;
22382;SDS011;11359;45.802;13.530;2023-02-26T02:24:00;0.20;;;0.20;;
22382;SDS011;11359;45.802;13.530;2023-02-26T02:26:59;1.38;;;0.20;;
22382;SDS011;11359;45.802;13.530;2023-02-26T02:35:24;0.20;;;0.20;;
22382;SDS011;11359;45.802;13.530;2023-02-26T02:38:13;0.20;;;0.20;;
22382;SDS011;11359;45.802;13.530;2023-02-26T02:40:51;0.20;;;0.20;;
22382;SDS011;11359;45.802;13.530;2023-02-26T02:43:26;0.20;;;0.20;;
22382;SDS011;11359;45.802;13.530;2023-02-26T02:45:59;0.20;;;0.20;;
22382;SDS011;11359;45.802;13.530;2023-02-26T02:48:37;0.20;;;0.20;;
22382;SDS011;11359;45.802;13.530;2023-02-26T02:51:09;0.20;;;0.20;;
22382;SDS011;11359;45.802;13.530;2023-02-26T02:53:40;0.20;;;0.20;;
22382;SDS011;11359;45.802;13.530;2023-02-26T02:58:40;0.20;;;0.20;;
22382;SDS011;11359;45.802;13.530;2023-02-26T03:01:12;0.20;;;0.20;;
22382;SDS011;11359;45.802;13.530;2023-02-26T03:03:46;0.20;;;0.20;;
22382;SDS011;11359;45.802;13.530;2023-02-26T03:06:19;0.20;;;0.20;;
22382;SDS011;11359;45.802;13.530;2023-02-26T03:08:45;0.20;;;0.20;;
22382;SDS011;11359;45.802;13.530;2023-02-26T03:11:12;0.20;;;0.20;;
22382;SDS011;11359;45.802;13.530;2023-02-26T03:13:39;0.20;;;0.20;;
22382;SDS011;11359;45.802;13.530;2023-02-26T03:19:13;0.20;;;0.20;;
22382;SDS011;11359;45.802;13.530;2023-02-26T03:22:14;0.20;;;0.20;;
22382;SDS011;11359;45.802;13.530;2023-02-26T03:24:59;0.20;;;0.20;;
22382;SDS011;11359;45.802;13.530;2023-02-26T03:27:44;0.20;;;0.20;;
22382;SDS011;11359;45.802;13.530;2023-02-26T03:35:33;0.63;;;0.30;;
22382;SDS011;11359;45.802;13.530;2023-02-26T03:38:06;0.20;;;0.20;;
22382;SDS011;11359;45.802;13.530;2023-02-26T03:40:41;0.20;;;0.20;;
22382;SDS011;11359;45.802;13.530;2023-02-26T03:43:20;0.20;;;0.20;;
22382;SDS011;11359;45.802;13.530;2023-02-26T03:45:50;0.20;;;0.20;;
22382;SDS011;11359;45.802;13.530;2023-02-26T03:48:25;0.30;;;0.20;;
22382;SDS011;11359;45.802;13.530;2023-02-26T03:50:53;0.20;;;0.20;;
22382;SDS011;11359;45.802;13.530;2023-02-26T03:53:27;0.20;;;0.20;;
22382;SDS011;11359;45.802;13.530;2023-02-26T03:56:05;0.20;;;0.20;;
22382;SDS011;11359;45.802;13.530;2023-02-26T03:58:32;0.20;;;0.20;;
22382;SDS011;11359;45.802;13.530;2023-02-26T04:01:01;0.20;;;0.20;;
22382;SDS011;11359;45.802;13.530;2023-02-26T04:03:44;0.20;;;0.20;;
22382;SDS011;11359;45.802;13.530;2023-02-26T04:06:13;0.20;;;0.20;;
22382;SDS011;11359;45.802;13.530;2023-02-26T04:08:39;0.20;;;0.20;;
22382;SDS011;11359;45.802;13.530;2023-02-26T04:11:13;0.20;;;0.20;;
22382;SDS011;11359;45.802;13.530;2023-02-26T04:13:44;0.20;;;0.20;;
22382;SDS011;11359;45.802;13.530;2023-02-26T04:16:11;0.20;;;0.20;;
22382;SDS011;11359;45.802;13.530;2023-02-26T04:18:39;0.30;;;0.20;;
22382;SDS011;11359;45.802;13.530;2023-02-26T04:21:09;0.25;;;0.25;;
22382;SDS011;11359;45.802;13.530;2023-02-26T04:23:36;0.20;;;0.20;;
22382;SDS011;11359;45.802;13.530;2023-02-26T04:26:02;0.20;;;0.20;;
22382;SDS011;11359;45.802;13.530;2023-02-26T04:28:29;0.20;;;0.20;;
22382;SDS011;11359;45.802;13.530;2023-02-26T04:30:54;0.20;;;0.20;;
22382;SDS011;11359;45.802;13.530;2023-02-26T04:33:20;0.30;;;0.30;;
22382;SDS011;11359;45.802;13.530;2023-02-26T04:35:47;0.20;;;0.20;;
22382;SDS011;11359;45.802;13.530;2023-02-26T04:38:13;0.20;;;0.20;;
22382;SDS011;11359;45.802;13.530;2023-02-26T04:40:40;0.20;;;0.20;;
22382;SDS011;11359;45.802;13.530;2023-02-26T04:43:06;0.20;;;0.20;;
22382;SDS011;11359;45.802;13.530;2023-02-26T04:45:32;0.20;;;0.20;;
22382;SDS011;11359;45.802;13.530;2023-02-26T04:47:57;0.20;;;0.20;;
22382;SDS011;11359;45.802;13.530;2023-02-26T04:50:23;0.20;;;0.20;;
22382;SDS011;11359;45.802;13.530;2023-02-26T04:52:49;0.20;;;0.20;;
22382;SDS011;11359;45.802;13.530;2023-02-26T04:55:15;0.20;;;0.20;;
22382;SDS011;11359;45.802;13.530;2023-02-26T04:57:40;0.20;;;0.20;;
22382;SDS011;11359;45.802;13.530;2023-02-26T05:00:06;0.20;;;0.20;;
22382;SDS011;11359;45.802;13.530;2023-02-26T05:02:32;0.20;;;0.20;;
22382;SDS011;11359;45.802;13.530;2023-02-26T05:04:58;0.20;;;0.20;;
22382;SDS011;11359;45.802;13.530;2023-02-26T05:07:24;0.20;;;0.20;;
22382;SDS011;11359;45.802;13.530;2023-02-26T05:09:49;0.20;;;0.20;;
22382;SDS011;11359;45.802;13.530;2023-02-26T05:12:15;0.20;;;0.20;;
22382;SDS011;11359;45.802;13.530;2023-02-26T05:14:41;0.20;;;0.20;;
22382;SDS011;11359;45.802;13.530;2023-02-26T05:17:07;0.20;;;0.20;;
22382;SDS011;11359;45.802;13.530;2023-02-26T05:19:33;0.20;;;0.20;;
22382;SDS011;11359;45.802;13.530;2023-02-26T05:21:59;0.20;;;0.20;;
22382;SDS011;11359;45.802;13.530;2023-02-26T05:24:25;0.20;;;0.20;;
22382;SDS011;11359;45.802;13.530;2023-02-26T05:26:50;0.20;;;0.20;;
22382;SDS011;11359;45.802;13.530;2023-02-26T05:29:16;0.20;;;0.20;;
22382;SDS011;11359;45.802;13.530;2023-02-26T05:31:42;0.20;;;0.20;;
22382;SDS011;11359;45.802;13.530;2023-02-26T05:34:08;0.20;;;0.20;;
22382;SDS011;11359;45.802;13.530;2023-02-26T05:36:34;0.32;;;0.20;;
22382;SDS011;11359;45.802;13.530;2023-02-26T05:38:59;0.30;;;0.30;;
22382;SDS011;11359;45.802;13.530;2023-02-26T05:41:25;0.20;;;0.20;;
22382;SDS011;11359;45.802;13.530;2023-02-26T05:43:51;0.20;;;0.20;;
22382;SDS011;11359;45.802;13.530;2023-02-26T05:46:16;0.20;;;0.20;;
22382;SDS011;11359;45.802;13.530;2023-02-26T05:48:42;0.20;;;0.20;;
22382;SDS011;11359;45.802;13.530;2023-02-26T05:51:08;0.22;;;0.22;;
22382;SDS011;11359;45.802;13.530;2023-02-26T05:53:34;0.20;;;0.20;;
22382;SDS011;11359;45.802;13.530;2023-02-26T05:56:00;0.30;;;0.30;;
22382;SDS011;11359;45.802;13.530;2023-02-26T05:58:26;0.30;;;0.30;;
22382;SDS011;11359;45.802;13.530;2023-02-26T06:00:52;0.30;;;0.30;;
22382;SDS011;11359;45.802;13.530;2023-02-26T06:03:18;0.22;;;0.22;;
22382;SDS011;11359;45.802;13.530;2023-02-26T06:05:44;0.30;;;0.30;;
22382;SDS011;11359;45.802;13.530;2023-02-26T06:08:09;0.30;;;0.30;;
22382;SDS011;11359;45.802;13.530;2023-02-26T06:10:39;0.22;;;0.22;;
22382;SDS011;11359;45.802;13.530;2023-02-26T06:13:05;0.20;;;0.20;;
22382;SDS011;11359;45.802;13.530;2023-02-26T06:15:31;0.20;;;0.20;;
22382;SDS011;11359;45.802;13.530;2023-02-26T06:17:56;0.20;;;0.20;;
22382;SDS011;11359;45.802;13.530;2023-02-26T06:20:22;0.30;;;0.30;;
22382;SDS011;11359;45.802;13.530;2023-02-26T06:22:48;0.30;;;0.30;;
22382;SDS011;11359;45.802;13.530;2023-02-26T06:25:13;0.25;;;0.25;;
22382;SDS011;11359;45.802;13.530;2023-02-26T06:27:39;0.20;;;0.20;;
22382;SDS011;11359;45.802;13.530;2023-02-26T06:30:05;0.20;;;0.20;;
22382;SDS011;11359;45.802;13.530;2023-02-26T06:32:31;0.30;;;0.30;;
22382;SDS011;11359;45.802;13.530;2023-02-26T06:34:57;0.20;;;0.20;;
22382;SDS011;11359;45.802;13.530;2023-02-26T06:37:23;0.30;;;0.30;;
22382;SDS011;11359;45.802;13.530;2023-02-26T06:39:49;0.20;;;0.20;;
22382;SDS011;11359;45.802;13.530;2023-02-26T06:42:15;0.20;;;0.20;;
22382;SDS011;11359;45.802;13.530;2023-02-26T06:44:40;0.30;;;0.30;;
22382;SDS011;11359;45.802;13.530;2023-02-26T06:47:06;0.30;;;0.30;;
22382;SDS011;11359;45.802;13.530;2023-02-26T06:49:31;0.28;;;0.28;;
22382;SDS011;11359;45.802;13.530;2023-02-26T06:51:57;0.28;;;0.28;;
22382;SDS011;11359;45.802;13.530;2023-02-26T06:54:23;0.60;;;0.30;;
22382;SDS011;11359;45.802;13.530;2023-02-26T06:56:49;0.20;;;0.20;;
22382;SDS011;11359;45.802;13.530;2023-02-26T06:59:14;0.20;;;0.20;;
22382;SDS011;11359;45.802;13.530;2023-02-26T07:01:40;0.30;;;0.30;;
22382;SDS011;11359;45.802;13.530;2023-02-26T07:04:06;0.20;;;0.20;;
22382;SDS011;11359;45.802;13.530;2023-02-26T07:06:31;0.20;;;0.20;;
22382;SDS011;11359;45.802;13.530;2023-02-26T07:08:57;0.55;;;0.30;;
22382;SDS011;11359;45.802;13.530;2023-02-26T07:11:23;0.30;;;0.30;;
22382;SDS011;11359;45.802;13.530;2023-02-26T07:13:49;0.30;;;0.30;;
22382;SDS011;11359;45.802;13.530;2023-02-26T07:16:16;0.40;;;0.40;;
22382;SDS011;11359;45.802;13.530;2023-02-26T07:18:41;0.30;;;0.30;;
22382;SDS011;11359;45.802;13.530;2023-02-26T07:21:07;0.43;;;0.20;;
22382;SDS011;11359;45.802;13.530;2023-02-26T07:23:33;0.30;;;0.30;;
22382;SDS011;11359;45.802;13.530;2023-02-26T07:25:58;0.20;;;0.20;;
22382;SDS011;11359;45.802;13.530;2023-02-26T07:28:24;0.30;;;0.30;;
22382;SDS011;11359;45.802;13.530;2023-02-26T07:30:52;0.30;;;0.30;;
22382;SDS011;11359;45.802;13.530;2023-02-26T07:33:18;0.40;;;0.28;;
22382;SDS011;11359;45.802;13.530;2023-02-26T07:35:45;0.30;;;0.30;;
22382;SDS011;11359;45.802;13.530;2023-02-26T07:38:11;0.30;;;0.30;;
22382;SDS011;11359;45.802;13.530;2023-02-26T07:40:36;0.30;;;0.30;;
22382;SDS011;11359;45.802;13.530;2023-02-26T07:43:02;0.30;;;0.30;;
22382;SDS011;11359;45.802;13.530;2023-02-26T07:45:28;0.22;;;0.22;;
22382;SDS011;11359;45.802;13.530;2023-02-26T07:47:54;0.30;;;0.30;;
22382;SDS011;11359;45.802;13.530;2023-02-26T07:50:19;0.20;;;0.20;;
22382;SDS011;11359;45.802;13.530;2023-02-26T07:52:48;0.30;;;0.30;;
22382;SDS011;11359;45.802;13.530;2023-02-26T07:55:16;0.40;;;0.40;;
22382;SDS011;11359;45.802;13.530;2023-02-26T07:57:41;0.50;;;0.30;;
22382;SDS011;11359;45.802;13.530;2023-02-26T08:00:07;0.30;;;0.30;;
22382;SDS011;11359;45.802;13.530;2023-02-26T08:02:33;0.30;;;0.30;;
22382;SDS011;11359;45.802;13.530;2023-02-26T08:04:59;0.30;;;0.30;;
22382;SDS011;11359;45.802;13.530;2023-02-26T08:07:28;0.30;;;0.30;;
22382;SDS011;11359;45.802;13.530;2023-02-26T08:09:53;0.32;;;0.30;;
22382;SDS011;11359;45.802;13.530;2023-02-26T08:12:19;0.30;;;0.30;;
22382;SDS011;11359;45.802;13.530;2023-02-26T08:14:44;0.35;;;0.35;;
22382;SDS011;11359;45.802;13.530;2023-02-26T08:17:12;0.38;;;0.30;;
22382;SDS011;11359;45.802;13.530;2023-02-26T08:19:37;0.82;;;0.40;;
22382;SDS011;11359;45.802;13.530;2023-02-26T08:22:03;0.30;;;0.30;;
22382;SDS011;11359;45.802;13.530;2023-02-26T08:24:29;0.75;;;0.30;;
22382;SDS011;11359;45.802;13.530;2023-02-26T08:26:55;0.30;;;0.30;;
22382;SDS011;11359;45.802;13.530;2023-02-26T08:29:21;0.30;;;0.30;;
22382;SDS011;11359;45.802;13.530;2023-02-26T08:31:47;0.35;;;0.30;;
22382;SDS011;11359;45.802;13.530;2023-02-26T08:34:13;0.40;;;0.40;;
22382;SDS011;11359;45.802;13.530;2023-02-26T08:36:39;0.40;;;0.35;;
22382;SDS011;11359;45.802;13.530;2023-02-26T08:39:05;0.30;;;0.30;;
22382;SDS011;11359;45.802;13.530;2023-02-26T08:41:31;0.45;;;0.40;;
22382;SDS011;11359;45.802;13.530;2023-02-26T08:44:00;0.32;;;0.32;;
22382;SDS011;11359;45.802;13.530;2023-02-26T08:46:26;0.40;;;0.40;;
22382;SDS011;11359;45.802;13.530;2023-02-26T08:48:52;3.10;;;1.90;;
22382;SDS011;11359;45.802;13.530;2023-02-26T08:51:18;2.10;;;1.25;;
22382;SDS011;11359;45.802;13.530;2023-02-26T08:53:45;2.30;;;1.30;;
22382;SDS011;11359;45.802;13.530;2023-02-26T08:56:11;8.45;;;6.82;;
22382;SDS011;11359;45.802;13.530;2023-02-26T08:58:38;6.28;;;5.10;;
22382;SDS011;11359;45.802;13.530;2023-02-26T09:01:03;4.20;;;3.42;;
22382;SDS011;11359;45.802;13.530;2023-02-26T09:03:29;3.85;;;3.00;;
22382;SDS011;11359;45.802;13.530;2023-02-26T09:05:55;2.92;;;2.10;;
22382;SDS011;11359;45.802;13.530;2023-02-26T09:08:21;2.67;;;1.52;;
22382;SDS011;11359;45.802;13.530;2023-02-26T09:10:47;1.63;;;1.33;;
22382;SDS011;11359;45.802;13.530;2023-02-26T09:13:14;2.47;;;1.70;;
22382;SDS011;11359;45.802;13.530;2023-02-26T09:15:40;1.40;;;1.30;;
22382;SDS011;11359;45.802;13.530;2023-02-26T09:18:05;0.70;;;0.70;;
22382;SDS011;11359;45.802;13.530;2023-02-26T09:20:31;0.60;;;0.60;;
22382;SDS011;11359;45.802;13.530;2023-02-26T09:22:57;0.80;;;0.60;;
22382;SDS011;11359;45.802;13.530;2023-02-26T09:25:23;0.55;;;0.50;;
22382;SDS011;11359;45.802;13.530;2023-02-26T09:27:49;0.40;;;0.40;;
22382;SDS011;11359;45.802;13.530;2023-02-26T09:30:15;0.73;;;0.47;;
22382;SDS011;11359;45.802;13.530;2023-02-26T09:32:41;0.40;;;0.40;;
22382;SDS011;11359;45.802;13.530;2023-02-26T09:35:06;0.43;;;0.43;;
22382;SDS011;11359;45.802;13.530;2023-02-26T09:37:33;0.50;;;0.40;;
22382;SDS011;11359;45.802;13.530;2023-02-26T09:40:02;0.40;;;0.40;;
22382;SDS011;11359;45.802;13.530;2023-02-26T09:45:26;0.85;;;0.60;;
22382;SDS011;11359;45.802;13.530;2023-02-26T09:48:04;0.70;;;0.40;;
22382;SDS011;11359;45.802;13.530;2023-02-26T09:53:11;0.47;;;0.40;;
22382;SDS011;11359;45.802;13.530;2023-02-26T09:55:46;0.70;;;0.55;;
22382;SDS011;11359;45.802;13.530;2023-02-26T09:58:22;0.55;;;0.50;;
22382;SDS011;11359;45.802;13.530;2023-02-26T10:03:58;0.30;;;0.30;;
22382;SDS011;11359;45.802;13.530;2023-02-26T10:06:29;0.50;;;0.50;;
22382;SDS011;11359;45.802;13.530;2023-02-26T10:09:07;0.88;;;0.50;;
22382;SDS011;11359;45.802;13.530;2023-02-26T10:11:46;0.40;;;0.40;;
22382;SDS011;11359;45.802;13.530;2023-02-26T10:14:23;0.40;;;0.40;;
22382;SDS011;11359;45.802;13.530;2023-02-26T10:16:56;0.50;;;0.50;;
22382;SDS011;11359;45.802;13.530;2023-02-26T10:19:30;0.40;;;0.40;;
22382;SDS011;11359;45.802;13.530;2023-02-26T10:22:03;0.40;;;0.40;;
22382;SDS011;11359;45.802;13.530;2023-02-26T10:24:41;0.80;;;0.52;;
22382;SDS011;11359;45.802;13.530;2023-02-26T10:27:13;0.95;;;0.50;;
22382;SDS011;11359;45.802;13.530;2023-02-26T10:34:52;1.50;;;1.00;;
22382;SDS011;11359;45.802;13.530;2023-02-26T10:37:37;1.33;;;0.90;;
22382;SDS011;11359;45.802;13.530;2023-02-26T10:40:33;1.67;;;1.37;;
22382;SDS011;11359;45.802;13.530;2023-02-26T10:48:54;3.47;;;3.17;;
22382;SDS011;11359;45.802;13.530;2023-02-26T10:51:24;2.70;;;2.25;;
22382;SDS011;11359;45.802;13.530;2023-02-26T10:53:57;1.55;;;1.40;;
22382;SDS011;11359;45.802;13.530;2023-02-26T10:56:29;2.80;;;1.20;;
22382;SDS011;11359;45.802;13.530;2023-02-26T10:58:56;1.00;;;0.90;;
22382;SDS011;11359;45.802;13.530;2023-02-26T11:01:23;0.77;;;0.70;;
22382;SDS011;11359;45.802;13.530;2023-02-26T11:03:55;0.80;;;0.80;;
22382;SDS011;11359;45.802;13.530;2023-02-26T11:06:29;1.02;;;0.77;;
22382;SDS011;11359;45.802;13.530;2023-02-26T11:08:58;0.82;;;0.70;;
22382;SDS011;11359;45.802;13.530;2023-02-26T11:14:11;1.05;;;0.57;;
22382;SDS011;11359;45.802;13.530;2023-02-26T11:16:40;0.60;;;0.60;;
22382;SDS011;11359;45.802;13.530;2023-02-26T11:19:12;0.90;;;0.60;;
22382;SDS011;11359;45.802;13.530;2023-02-26T11:21:40;0.50;;;0.50;;
22382;SDS011;11359;45.802;13.530;2023-02-26T11:26:42;0.98;;;0.63;;
22382;SDS011;11359;45.802;13.530;2023-02-26T11:29:15;0.80;;;0.50;;
22382;SDS011;11359;45.802;13.530;2023-02-26T11:31:52;0.50;;;0.40;;
22382;SDS011;11359;45.802;13.530;2023-02-26T11:34:25;0.95;;;0.50;;
22382;SDS011;11359;45.802;13.530;2023-02-26T11:36:52;0.40;;;0.40;;
22382;SDS011;11359;45.802;13.530;2023-02-26T11:39:28;1.33;;;0.60;;
22382;SDS011;11359;45.802;13.530;2023-02-26T11:41:58;0.70;;;0.60;;
22382;SDS011;11359;45.802;13.530;2023-02-26T11:44:33;0.73;;;0.70;;
22382;SDS011;11359;45.802;13.530;2023-02-26T11:47:05;0.82;;;0.60;;
22382;SDS011;11359;45.802;13.530;2023-02-26T11:49:38;1.00;;;0.75;;
22382;SDS011;11359;45.802;13.530;2023-02-26T11:52:20;0.88;;;0.65;;
22382;SDS011;11359;45.802;13.530;2023-02-26T11:54:56;1.42;;;0.80;;
22382;SDS011;11359;45.802;13.530;2023-02-26T11:57:30;1.50;;;0.80;;
22382;SDS011;11359;45.802;13.530;2023-02-26T11:59:58;1.15;;;0.75;;
22382;SDS011;11359;45.802;13.530;2023-02-26T12:02:26;0.90;;;0.70;;
22382;SDS011;11359;45.802;13.530;2023-02-26T12:05:00;0.95;;;0.70;;
22382;SDS011;11359;45.802;13.530;2023-02-26T12:07:29;1.05;;;0.60;;
22382;SDS011;11359;45.802;13.530;2023-02-26T12:09:55;0.88;;;0.80;;
22382;SDS011;11359;45.802;13.530;2023-02-26T12:15:06;1.50;;;0.70;;
22382;SDS011;11359;45.802;13.530;2023-02-26T12:42:02;0.70;;;0.70;;
22382;SDS011;11359;45.802;13.530;2023-02-26T12:45:15;1.08;;;0.75;;
22382;SDS011;11359;45.802;13.530;2023-02-26T12:50:40;1.25;;;0.88;;
22382;SDS011;11359;45.802;13.530;2023-02-26T12:56:07;1.67;;;0.98;;
22382;SDS011;11359;45.802;13.530;2023-02-26T13:07:01;1.38;;;0.82;;
22382;SDS011;11359;45.802;13.530;2023-02-26T13:21:22;2.55;;;1.70;;
22382;SDS011;11359;45.802;13.530;2023-02-26T13:23:56;1.77;;;1.27;;
22382;SDS011;11359;45.802;13.530;2023-02-26T13:26:30;1.60;;;1.00;;
22382;SDS011;11359;45.802;13.530;2023-02-26T13:28:59;1.13;;;0.90;;
22382;SDS011;11359;45.802;13.530;2023-02-26T13:31:37;1.98;;;1.20;;
22382;SDS011;11359;45.802;13.530;2023-02-26T13:34:11;1.60;;;1.20;;
22382;SDS011;11359;45.802;13.530;2023-02-26T13:36:42;0.98;;;0.70;;
22382;SDS011;11359;45.802;13.530;2023-02-26T13:45:29;1.00;;;0.80;;
22382;SDS011;11359;45.802;13.530;2023-02-26T14:04:25;1.10;;;0.93;;
22382;SDS011;11359;45.802;13.530;2023-02-26T14:07:13;1.40;;;1.00;;
22382;SDS011;11359;45.802;13.530;2023-02-26T14:17:38;1.30;;;0.90;;
22382;SDS011;11359;45.802;13.530;2023-02-26T14:23:13;1.15;;;0.90;;
22382;SDS011;11359;45.802;13.530;2023-02-26T14:25:46;1.25;;;0.90;;
22382;SDS011;11359;45.802;13.530;2023-02-26T14:33:44;1.33;;;1.10;;
22382;SDS011;11359;45.802;13.530;2023-02-26T14:36:27;1.70;;;1.17;;
22382;SDS011;11359;45.802;13.530;2023-02-26T14:43:59;3.13;;;0.93;;
22382;SDS011;11359;45.802;13.530;2023-02-26T14:46:27;1.00;;;0.75;;
22382;SDS011;11359;45.802;13.530;2023-02-26T14:48:53;1.33;;;1.00;;
22382;SDS011;11359;45.802;13.530;2023-02-26T14:59:27;2.55;;;1.10;;
22382;SDS011;11359;45.802;13.530;2023-02-26T15:02:01;1.45;;;1.10;;
22382;SDS011;11359;45.802;13.530;2023-02-26T15:10:12;1.75;;;1.05;;
22382;SDS011;11359;45.802;13.530;2023-02-26T15:18:18;1.05;;;0.70;;
22382;SDS011;11359;45.802;13.530;2023-02-26T15:24:04;2.15;;;0.80;;
22382;SDS011;11359;45.802;13.530;2023-02-26T15:26:36;1.00;;;0.80;;
22382;SDS011;11359;45.802;13.530;2023-02-26T15:29:10;1.00;;;0.88;;
22382;SDS011;11359;45.802;13.530;2023-02-26T15:31:42;1.27;;;0.80;;
22382;SDS011;11359;45.802;13.530;2023-02-26T15:34:12;1.10;;;0.80;;
22382;SDS011;11359;45.802;13.530;2023-02-26T15:36:44;0.95;;;0.80;;
22382;SDS011;11359;45.802;13.530;2023-02-26T15:39:13;1.38;;;0.98;;
22382;SDS011;11359;45.802;13.530;2023-02-26T15:41:41;1.17;;;0.75;;
22382;SDS011;11359;45.802;13.530;2023-02-26T15:44:15;0.80;;;0.70;;
22382;SDS011;11359;45.802;13.530;2023-02-26T15:46:52;1.23;;;0.93;;
22382;SDS011;11359;45.802;13.530;2023-02-26T15:51:53;0.82;;;0.70;;
22382;SDS011;11359;45.802;13.530;2023-02-26T15:54:22;1.08;;;0.80;;
22382;SDS011;11359;45.802;13.530;2023-02-26T15:56:49;1.17;;;0.82;;
22382;SDS011;11359;45.802;13.530;2023-02-26T15:59:17;1.15;;;0.85;;
22382;SDS011;11359;45.802;13.530;2023-02-26T16:01:47;0.90;;;0.70;;
22382;SDS011;11359;45.802;13.530;2023-02-26T16:04:15;0.95;;;0.68;;
22382;SDS011;11359;45.802;13.530;2023-02-26T16:06:47;0.60;;;0.60;;
22382;SDS011;11359;45.802;13.530;2023-02-26T16:09:18;1.17;;;0.90;;
22382;SDS011;11359;45.802;13.530;2023-02-26T16:11:51;1.08;;;0.65;;
22382;SDS011;11359;45.802;13.530;2023-02-26T16:14:23;0.88;;;0.52;;
22382;SDS011;11359;45.802;13.530;2023-02-26T16:16:54;1.17;;;0.85;;
22382;SDS011;11359;45.802;13.530;2023-02-26T16:22:00;1.77;;;1.08;;
22382;SDS011;11359;45.802;13.530;2023-02-26T16:24:31;1.38;;;1.02;;
22382;SDS011;11359;45.802;13.530;2023-02-26T16:26:59;1.10;;;0.80;;
22382;SDS011;11359;45.802;13.530;2023-02-26T16:29:29;0.70;;;0.70;;
22382;SDS011;11359;45.802;13.530;2023-02-26T16:31:58;0.60;;;0.60;;
22382;SDS011;11359;45.802;13.530;2023-02-26T16:36:54;1.40;;;0.80;;
22382;SDS011;11359;45.802;13.530;2023-02-26T16:39:24;2.47;;;0.80;;
22382;SDS011;11359;45.802;13.530;2023-02-26T16:42:13;0.80;;;0.60;;
22382;SDS011;11359;45.802;13.530;2023-02-26T16:44:45;0.50;;;0.50;;
22382;SDS011;11359;45.802;13.530;2023-02-26T16:47:15;1.00;;;0.70;;
22382;SDS011;11359;45.802;13.530;2023-02-26T16:49:42;1.08;;;0.70;;
22382;SDS011;11359;45.802;13.530;2023-02-26T16:52:14;1.25;;;0.90;;
22382;SDS011;11359;45.802;13.530;2023-02-26T16:54:42;1.30;;;0.93;;
22382;SDS011;11359;45.802;13.530;2023-02-26T16:57:21;1.42;;;0.85;;
22382;SDS011;11359;45.802;13.530;2023-02-26T17:00:13;1.63;;;0.80;;
22382;SDS011;11359;45.802;13.530;2023-02-26T17:02:42;0.88;;;0.75;;
22382;SDS011;11359;45.802;13.530;2023-02-26T17:05:16;1.25;;;0.77;;
22382;SDS011;11359;45.802;13.530;2023-02-26T17:07:48;0.85;;;0.70;;
22382;SDS011;11359;45.802;13.530;2023-02-26T17:10:22;1.10;;;0.90;;
22382;SDS011;11359;45.802;13.530;2023-02-26T17:13:00;1.30;;;1.00;;
22382;SDS011;11359;45.802;13.530;2023-02-26T17:15:29;1.45;;;0.90;;
22382;SDS011;11359;45.802;13.530;2023-02-26T17:18:00;1.20;;;0.80;;
22382;SDS011;11359;45.802;13.530;2023-02-26T17:20:26;1.08;;;0.73;;
22382;SDS011;11359;45.802;13.530;2023-02-26T17:22:53;0.88;;;0.68;;
22382;SDS011;11359;45.802;13.530;2023-02-26T17:25:21;1.42;;;0.90;;
22382;SDS011;11359;45.802;13.530;2023-02-26T17:27:49;0.80;;;0.70;;
22382;SDS011;11359;45.802;13.530;2023-02-26T17:30:18;1.08;;;0.88;;
22382;SDS011;11359;45.802;13.530;2023-02-26T17:32:46;0.77;;;0.68;;
22382;SDS011;11359;45.802;13.530;2023-02-26T17:35:15;1.33;;;0.80;;
22382;SDS011;11359;45.802;13.530;2023-02-26T17:37:42;2.15;;;0.70;;
22382;SDS011;11359;45.802;13.530;2023-02-26T17:40:15;1.13;;;0.80;;
22382;SDS011;11359;45.802;13.530;2023-02-26T17:42:53;1.13;;;0.90;;
22382;SDS011;11359;45.802;13.530;2023-02-26T17:45:19;1.20;;;0.60;;
22382;SDS011;11359;45.802;13.530;2023-02-26T17:47:45;1.25;;;0.70;;
22382;SDS011;11359;45.802;13.530;2023-02-26T17:53:02;1.25;;;0.75;;
22382;SDS011;11359;45.802;13.530;2023-02-26T17:55:30;1.00;;;0.70;;
22382;SDS011;11359;45.802;13.530;2023-02-26T17:57:56;1.38;;;1.00;;
22382;SDS011;11359;45.802;13.530;2023-02-26T18:00:22;1.00;;;0.90;;
22382;SDS011;11359;45.802;13.530;2023-02-26T18:02:49;11.60;;;8.18;;
22382;SDS011;11359;45.802;13.530;2023-02-26T18:05:15;8.75;;;6.80;;
22382;SDS011;11359;45.802;13.530;2023-02-26T18:07:45;7.15;;;5.93;;
22382;SDS011;11359;45.802;13.530;2023-02-26T18:10:18;4.97;;;4.28;;
22382;SDS011;11359;45.802;13.530;2023-02-26T18:12:46;3.03;;;2.20;;